Main page
METAR-TAF:

METAR-TAF

Airports :

King Khalid International Airport

Riyadh, Saudi Arabia

latitude: 24-56N, longitude: 046-43E, elevation: 614 m

Current weather observation

The report was made 14 minutes ago, at 03:00 UTC
Wind 5 kt from the West
Temperature 27°C
Humidity 17%
Pressure 1010 hPa
Visibility: 9000 m

METAR: OERK 240300Z 28005KT 9000 NSC 27/00 Q1010 NOSIG

Time: 06:14 (03:14 UTC)

Forecast

The report was made 4 hours and 14 minutes ago, at 23:00 UTC
Forecast valid from 24 at 00 UTC to 25 at 06 UTC
Wind 6 kt from the West/Northwest
Visibility: 7000 m
Becoming
from 24 at 06 UTC to 24 at 08 UTC
Wind 6 kt from the North with gusts up to 16 kt
Temporary
from 24 at 06 UTC to 24 at 12 UTC
Visibility: 4000 m
widespread dust, Blowing dust

TAF: OERK 232300Z 2400/2506 30006KT 7000 NSC BECMG 2406/2408 35006G16KT TEMPO 2406/2412 4000 DU BLDU

Weather observations and forecasts of more than 4000 airports (METAR and TAF reports).

The available stations are represented by yellow and red dots on the map.

Hover mouse over dot to see the name of the station.

Then click to see weather observations and forecasts.

To change the map : click on the green buttons with a black cross to zoom in, on the green button with a dash to zoom out, or on the green arrows for adjacent maps.


METAR-TAF: